DLH6964 SBPA-SBFL
Flight info
| Callsign | DLH6964 |
|---|---|
| Flight time | 0h 48m |
| Altitude | 29000 |
| Route | ANLER UM540 DADMO |
| Aircraft | A320/M-V/N |
Departure
| Time | 2026-04-23 23:17 |
|---|---|
| Airport | Porto Alegre-Salgado Filho International Airport (SBPA) |
Arrival
| Time | 2026-04-24 00:05 |
|---|---|
| Airport | Hercílio Luz International Airport (SBFL) |
| Time | Latitude | Longitude | Altitude | Speed | Heading |
|---|---|---|---|---|---|
| 2026-04-23 23:07 | -29.99066 | -51.17870 | 19 ft | 0 kts | 89° |
| 2026-04-23 23:10 | -29.99066 | -51.17876 | 19 ft | 1 kts | 89° |
| 2026-04-23 23:11 | -29.99067 | -51.17884 | 19 ft | 1 kts | 89° |
| 2026-04-23 23:11 | -29.99067 | -51.17892 | 19 ft | 1 kts | 89° |
| 2026-04-23 23:11 | -29.99067 | -51.17900 | 19 ft | 1 kts | 89° |
| 2026-04-23 23:11 | -29.99067 | -51.17909 | 19 ft | 1 kts | 89° |
| 2026-04-23 23:12 | -29.99067 | -51.17918 | 19 ft | 1 kts | 89° |
| 2026-04-23 23:12 | -29.99067 | -51.17927 | 19 ft | 1 kts | 116° |
| 2026-04-23 23:12 | -29.99063 | -51.17934 | 19 ft | 1 kts | 159° |
| 2026-04-23 23:12 | -29.99056 | -51.17936 | 23 ft | 1 kts | 194° |
| 2026-04-23 23:13 | -29.99051 | -51.17935 | 22 ft | 1 kts | 194° |
| 2026-04-23 23:13 | -29.99052 | -51.17935 | 22 ft | 0 kts | 194° |
| 2026-04-23 23:14 | -29.99135 | -51.17986 | 19 ft | 21 kts | 215° |
| 2026-04-23 23:14 | -29.99218 | -51.18084 | 19 ft | 17 kts | 240° |
| 2026-04-23 23:15 | -29.99279 | -51.18185 | 19 ft | 0 kts | 214° |
| 2026-04-23 23:15 | -29.99284 | -51.18189 | 19 ft | 2 kts | 214° |
| 2026-04-23 23:15 | -29.99300 | -51.18202 | 20 ft | 1 kts | 212° |
| 2026-04-23 23:15 | -29.99317 | -51.18212 | 19 ft | 4 kts | 207° |
| 2026-04-23 23:16 | -29.99359 | -51.18236 | 19 ft | 11 kts | 204° |
| 2026-04-23 23:16 | -29.99435 | -51.18214 | 21 ft | 13 kts | 117° |
| 2026-04-23 23:16 | -29.99444 | -51.18047 | 21 ft | 49 kts | 92° |
| 2026-04-23 23:16 | -29.99461 | -51.17355 | 18 ft | 120 kts | 91° |
| 2026-04-23 23:17 | -29.99488 | -51.16229 | 304 ft | 148 kts | 93° |
| 2026-04-23 23:17 | -29.99493 | -51.15006 | 848 ft | 158 kts | 94° |
| 2026-04-23 23:17 | -29.99508 | -51.13710 | 1483 ft | 167 kts | 92° |
| 2026-04-23 23:17 | -29.99539 | -51.12301 | 1943 ft | 188 kts | 91° |
| 2026-04-23 23:18 | -29.99580 | -51.10716 | 2468 ft | 209 kts | 91° |
| 2026-04-23 23:18 | -29.99621 | -51.08957 | 3079 ft | 228 kts | 90° |
| 2026-04-23 23:18 | -29.99660 | -51.07098 | 3963 ft | 235 kts | 90° |
| 2026-04-23 23:18 | -29.99698 | -51.05187 | 4872 ft | 240 kts | 90° |
| 2026-04-23 23:19 | -29.99732 | -51.03222 | 5670 ft | 249 kts | 90° |
| 2026-04-23 23:19 | -29.99767 | -51.01180 | 6474 ft | 259 kts | 90° |
| 2026-04-23 23:19 | -29.99801 | -50.99068 | 7225 ft | 267 kts | 90° |
| 2026-04-23 23:19 | -29.99836 | -50.96912 | 8052 ft | 272 kts | 91° |
| 2026-04-23 23:20 | -29.99870 | -50.94760 | 8898 ft | 275 kts | 90° |
| 2026-04-23 23:20 | -29.99545 | -50.92582 | 9644 ft | 279 kts | 64° |
| 2026-04-23 23:20 | -29.98417 | -50.90788 | 10422 ft | 278 kts | 37° |
| 2026-04-23 23:20 | -29.96728 | -50.89779 | 11193 ft | 274 kts | 11° |
| 2026-04-23 23:21 | -29.94841 | -50.89431 | 11955 ft | 277 kts | 6° |
| 2026-04-23 23:21 | -29.92891 | -50.88959 | 12365 ft | 299 kts | 14° |
| 2026-04-23 23:21 | -29.90873 | -50.88046 | 12619 ft | 324 kts | 24° |
| 2026-04-23 23:21 | -29.88826 | -50.86744 | 12848 ft | 347 kts | 30° |
| 2026-04-23 23:22 | -29.86744 | -50.85201 | 13298 ft | 361 kts | 33° |
| 2026-04-23 23:22 | -29.84657 | -50.83575 | 14098 ft | 363 kts | 33° |
| 2026-04-23 23:22 | -29.82560 | -50.81930 | 14791 ft | 366 kts | 33° |
| 2026-04-23 23:22 | -29.80438 | -50.80275 | 15462 ft | 370 kts | 32° |
| 2026-04-23 23:23 | -29.78290 | -50.78609 | 16135 ft | 374 kts | 31° |
| 2026-04-23 23:23 | -29.76122 | -50.76926 | 16791 ft | 378 kts | 31° |
| 2026-04-23 23:23 | -29.73930 | -50.75225 | 17452 ft | 382 kts | 30° |
| 2026-04-23 23:23 | -29.72460 | -50.74085 | 17878 ft | 385 kts | 30° |
| 2026-04-23 23:24 | -29.71793 | -50.73569 | 18068 ft | 386 kts | 30° |
| 2026-04-23 23:24 | -29.70736 | -50.72750 | 18379 ft | 387 kts | 30° |
| 2026-04-23 23:24 | -29.69412 | -50.71726 | 18713 ft | 390 kts | 29° |
| 2026-04-23 23:24 | -29.67147 | -50.69977 | 19214 ft | 395 kts | 29° |
| 2026-04-23 23:25 | -29.64849 | -50.68204 | 19728 ft | 400 kts | 29° |
| 2026-04-23 23:25 | -29.62556 | -50.66437 | 20210 ft | 405 kts | 29° |
| 2026-04-23 23:25 | -29.60202 | -50.64623 | 20691 ft | 409 kts | 28° |
| 2026-04-23 23:25 | -29.57823 | -50.62791 | 21201 ft | 414 kts | 28° |
| 2026-04-23 23:26 | -29.55422 | -50.60942 | 21746 ft | 418 kts | 28° |
| 2026-04-23 23:26 | -29.52994 | -50.59076 | 22199 ft | 422 kts | 28° |
| 2026-04-23 23:26 | -29.50541 | -50.57191 | 22715 ft | 426 kts | 28° |
| 2026-04-23 23:26 | -29.48081 | -50.55247 | 23200 ft | 433 kts | 32° |
| 2026-04-23 23:27 | -29.45751 | -50.53000 | 23669 ft | 441 kts | 35° |
| 2026-04-23 23:27 | -29.43424 | -50.50681 | 24080 ft | 445 kts | 35° |
| 2026-04-23 23:27 | -29.42468 | -50.49731 | 24265 ft | 446 kts | 35° |
| 2026-04-23 23:28 | -29.40169 | -50.47446 | 24697 ft | 448 kts | 35° |
| 2026-04-23 23:28 | -29.37770 | -50.45066 | 25115 ft | 452 kts | 35° |
| 2026-04-23 23:29 | -29.35415 | -50.42734 | 25519 ft | 454 kts | 35° |
| 2026-04-23 23:29 | -29.33015 | -50.40359 | 25920 ft | 457 kts | 35° |
| 2026-04-23 23:29 | -29.30602 | -50.37974 | 26328 ft | 460 kts | 35° |
| 2026-04-23 23:29 | -29.29544 | -50.36928 | 26503 ft | 461 kts | 35° |
| 2026-04-23 23:30 | -29.28124 | -50.35556 | 26732 ft | 460 kts | 32° |
| 2026-04-23 23:31 | -29.25566 | -50.33352 | 27111 ft | 461 kts | 30° |
| 2026-04-23 23:31 | -29.22983 | -50.31150 | 27505 ft | 464 kts | 30° |
| 2026-04-23 23:31 | -29.20384 | -50.28933 | 27857 ft | 466 kts | 31° |
| 2026-04-23 23:31 | -29.17774 | -50.26706 | 28224 ft | 469 kts | 31° |
| 2026-04-23 23:32 | -29.15151 | -50.24468 | 28565 ft | 472 kts | 31° |
| 2026-04-23 23:32 | -29.12549 | -50.22249 | 28914 ft | 474 kts | 31° |
| 2026-04-23 23:32 | -29.09895 | -50.19988 | 29149 ft | 477 kts | 31° |
| 2026-04-23 23:33 | -29.04564 | -50.15449 | 29188 ft | 477 kts | 30° |
| 2026-04-23 23:33 | -28.99241 | -50.10924 | 29186 ft | 477 kts | 30° |
| 2026-04-23 23:34 | -28.93915 | -50.06405 | 29189 ft | 477 kts | 30° |
| 2026-04-23 23:34 | -28.88588 | -50.01889 | 29184 ft | 477 kts | 30° |
| 2026-04-23 23:35 | -28.83243 | -49.97362 | 29187 ft | 479 kts | 30° |
| 2026-04-23 23:35 | -28.77891 | -49.92834 | 29192 ft | 479 kts | 30° |
| 2026-04-23 23:36 | -28.72525 | -49.88341 | 29192 ft | 480 kts | 30° |
| 2026-04-23 23:36 | -28.67175 | -49.83825 | 29182 ft | 480 kts | 30° |
| 2026-04-23 23:37 | -28.61851 | -49.79242 | 29192 ft | 475 kts | 31° |
| 2026-04-23 23:37 | -28.59257 | -49.77035 | 29191 ft | 457 kts | 30° |
| 2026-04-23 23:37 | -28.56743 | -49.74934 | 29180 ft | 439 kts | 29° |
| 2026-04-23 23:37 | -28.54333 | -49.72922 | 29131 ft | 419 kts | 28° |
| 2026-04-23 23:38 | -28.52053 | -49.71010 | 29076 ft | 397 kts | 28° |
| 2026-04-23 23:38 | -28.49873 | -49.69182 | 28773 ft | 383 kts | 28° |
| 2026-04-23 23:38 | -28.47750 | -49.67389 | 28259 ft | 378 kts | 31° |
| 2026-04-23 23:38 | -28.45816 | -49.65365 | 27758 ft | 377 kts | 37° |
| 2026-04-23 23:39 | -28.43977 | -49.63283 | 27264 ft | 370 kts | 37° |
| 2026-04-23 23:39 | -28.42163 | -49.61239 | 26779 ft | 364 kts | 37° |
| 2026-04-23 23:39 | -28.40373 | -49.59227 | 26298 ft | 361 kts | 37° |
| 2026-04-23 23:39 | -28.38594 | -49.57231 | 25838 ft | 358 kts | 37° |
| 2026-04-23 23:40 | -28.36839 | -49.55260 | 25381 ft | 353 kts | 37° |
| 2026-04-23 23:40 | -28.35124 | -49.53325 | 24915 ft | 351 kts | 37° |
| 2026-04-23 23:40 | -28.33406 | -49.51398 | 24455 ft | 344 kts | 37° |
| 2026-04-23 23:40 | -28.31708 | -49.49501 | 24017 ft | 341 kts | 37° |
| 2026-04-23 23:41 | -28.30030 | -49.47627 | 23553 ft | 338 kts | 37° |
| 2026-04-23 23:41 | -28.28353 | -49.45759 | 23175 ft | 335 kts | 38° |
| 2026-04-23 23:41 | -28.26710 | -49.43917 | 22893 ft | 330 kts | 38° |
| 2026-04-23 23:41 | -28.25086 | -49.42095 | 22507 ft | 327 kts | 38° |
| 2026-04-23 23:42 | -28.23475 | -49.40290 | 22154 ft | 324 kts | 38° |
| 2026-04-23 23:42 | -28.21839 | -49.38579 | 21792 ft | 315 kts | 27° |
| 2026-04-23 23:42 | -28.19898 | -49.37613 | 21342 ft | 300 kts | 4° |
| 2026-04-23 23:43 | -28.18022 | -49.37627 | 20927 ft | 288 kts | 341° |
| 2026-04-23 23:44 | -28.16237 | -49.38541 | 20530 ft | 280 kts | 324° |
| 2026-04-23 23:44 | -28.15683 | -49.38939 | 20412 ft | 279 kts | 324° |
| 2026-04-23 23:45 | -28.14425 | -49.39866 | 20127 ft | 278 kts | 323° |
| 2026-04-23 23:45 | -28.12808 | -49.41069 | 19729 ft | 278 kts | 323° |
| 2026-04-23 23:46 | -28.11199 | -49.42274 | 19307 ft | 278 kts | 323° |
| 2026-04-23 23:46 | -28.09750 | -49.43674 | 18965 ft | 272 kts | 304° |
| 2026-04-23 23:46 | -28.09000 | -49.45615 | 18525 ft | 272 kts | 278° |
| 2026-04-23 23:46 | -28.09140 | -49.47743 | 18054 ft | 276 kts | 252° |
| 2026-04-23 23:47 | -28.10132 | -49.49572 | 17585 ft | 281 kts | 225° |
| 2026-04-23 23:47 | -28.11797 | -49.50720 | 17184 ft | 285 kts | 199° |
| 2026-04-23 23:47 | -28.13775 | -49.50910 | 16773 ft | 290 kts | 172° |
| 2026-04-23 23:47 | -28.15647 | -49.50084 | 16373 ft | 293 kts | 145° |
| 2026-04-23 23:48 | -28.17018 | -49.48403 | 16010 ft | 293 kts | 117° |
| 2026-04-23 23:48 | -28.17714 | -49.46248 | 15652 ft | 291 kts | 105° |
| 2026-04-23 23:48 | -28.18257 | -49.44048 | 15324 ft | 289 kts | 104° |
| 2026-04-23 23:48 | -28.18788 | -49.41872 | 15033 ft | 285 kts | 104° |
| 2026-04-23 23:49 | -28.19148 | -49.37470 | 14345 ft | 280 kts | 74° |
| 2026-04-23 23:49 | -28.18453 | -49.35433 | 13999 ft | 276 kts | 58° |
| 2026-04-23 23:49 | -28.17378 | -49.33652 | 13618 ft | 272 kts | 48° |
| 2026-04-23 23:50 | -28.16130 | -49.32059 | 13271 ft | 269 kts | 44° |
| 2026-04-23 23:50 | -28.15263 | -49.31060 | 13045 ft | 268 kts | 42° |
| 2026-04-23 23:50 | -28.13489 | -49.29100 | 12589 ft | 265 kts | 42° |
| 2026-04-23 23:50 | -28.12170 | -49.27652 | 12252 ft | 263 kts | 42° |
| 2026-04-23 23:51 | -28.10861 | -49.26208 | 11913 ft | 262 kts | 43° |
| 2026-04-23 23:51 | -28.10002 | -49.25255 | 11687 ft | 260 kts | 43° |
| 2026-04-23 23:51 | -28.08713 | -49.23821 | 11374 ft | 259 kts | 43° |
| 2026-04-23 23:51 | -28.07435 | -49.22397 | 11036 ft | 257 kts | 43° |
| 2026-04-23 23:52 | -28.06163 | -49.20978 | 10731 ft | 255 kts | 43° |
| 2026-04-23 23:52 | -28.04901 | -49.19570 | 10425 ft | 254 kts | 43° |
| 2026-04-23 23:52 | -28.03243 | -49.17722 | 10018 ft | 252 kts | 43° |
| 2026-04-23 23:52 | -28.02400 | -49.16783 | 9788 ft | 251 kts | 43° |
| 2026-04-23 23:53 | -28.01160 | -49.15401 | 9467 ft | 249 kts | 44° |
| 2026-04-23 23:53 | -27.99927 | -49.14029 | 9139 ft | 248 kts | 44° |
| 2026-04-23 23:53 | -27.98701 | -49.12664 | 8822 ft | 246 kts | 44° |
| 2026-04-23 23:53 | -27.97501 | -49.11330 | 8508 ft | 244 kts | 44° |
| 2026-04-23 23:54 | -27.96289 | -49.09983 | 8195 ft | 243 kts | 44° |
| 2026-04-23 23:54 | -27.95085 | -49.08644 | 7890 ft | 242 kts | 44° |
| 2026-04-23 23:54 | -27.93890 | -49.07317 | 7604 ft | 239 kts | 44° |
| 2026-04-23 23:54 | -27.92709 | -49.06006 | 7337 ft | 237 kts | 44° |
| 2026-04-23 23:55 | -27.91536 | -49.04704 | 7096 ft | 234 kts | 44° |
| 2026-04-23 23:55 | -27.90374 | -49.03415 | 7037 ft | 236 kts | 44° |
| 2026-04-23 23:55 | -27.89197 | -49.02108 | 7033 ft | 237 kts | 44° |
| 2026-04-23 23:55 | -27.88021 | -49.00803 | 7029 ft | 236 kts | 44° |
| 2026-04-23 23:56 | -27.86848 | -48.99502 | 7033 ft | 237 kts | 44° |
| 2026-04-23 23:56 | -27.85674 | -48.98202 | 7038 ft | 236 kts | 44° |
| 2026-04-23 23:56 | -27.84500 | -48.96901 | 7031 ft | 237 kts | 44° |
| 2026-04-23 23:56 | -27.83324 | -48.95598 | 7032 ft | 237 kts | 44° |
| 2026-04-23 23:57 | -27.82147 | -48.94295 | 7029 ft | 235 kts | 45° |
| 2026-04-23 23:57 | -27.80977 | -48.93000 | 7031 ft | 236 kts | 45° |
| 2026-04-23 23:57 | -27.79810 | -48.91708 | 7041 ft | 236 kts | 45° |
| 2026-04-23 23:57 | -27.78652 | -48.90428 | 7032 ft | 235 kts | 45° |
| 2026-04-23 23:58 | -27.77484 | -48.89135 | 7036 ft | 236 kts | 44° |
| 2026-04-23 23:58 | -27.76309 | -48.87836 | 7039 ft | 236 kts | 44° |
| 2026-04-23 23:58 | -27.75138 | -48.86544 | 7024 ft | 235 kts | 44° |
| 2026-04-23 23:58 | -27.73968 | -48.85253 | 7032 ft | 235 kts | 44° |
| 2026-04-23 23:59 | -27.72791 | -48.83956 | 7030 ft | 236 kts | 44° |
| 2026-04-23 23:59 | -27.71621 | -48.82665 | 7024 ft | 235 kts | 44° |
| 2026-04-23 23:59 | -27.70453 | -48.81376 | 7029 ft | 235 kts | 45° |
| 2026-04-23 23:59 | -27.69281 | -48.80083 | 7025 ft | 235 kts | 45° |
| 2026-04-24 00:00 | -27.68113 | -48.78794 | 7028 ft | 235 kts | 45° |
| 2026-04-24 00:00 | -27.66943 | -48.77508 | 7016 ft | 235 kts | 43° |
| 2026-04-24 00:00 | -27.65633 | -48.76386 | 6808 ft | 238 kts | 31° |
| 2026-04-24 00:00 | -27.64212 | -48.75436 | 6334 ft | 245 kts | 32° |
| 2026-04-24 00:01 | -27.62732 | -48.74442 | 5836 ft | 247 kts | 32° |
| 2026-04-24 00:01 | -27.61264 | -48.73449 | 5302 ft | 245 kts | 32° |
| 2026-04-24 00:01 | -27.59920 | -48.72297 | 4739 ft | 243 kts | 52° |
| 2026-04-24 00:01 | -27.59217 | -48.70600 | 4150 ft | 241 kts | 83° |
| 2026-04-24 00:02 | -27.59423 | -48.68746 | 3580 ft | 241 kts | 110° |
| 2026-04-24 00:02 | -27.60157 | -48.67045 | 2785 ft | 247 kts | 119° |
| 2026-04-24 00:02 | -27.61107 | -48.65344 | 1874 ft | 257 kts | 123° |
| 2026-04-24 00:02 | -27.62051 | -48.63680 | 1365 ft | 248 kts | 121° |
| 2026-04-24 00:03 | -27.62932 | -48.62051 | 1024 ft | 235 kts | 120° |
| 2026-04-24 00:03 | -27.63698 | -48.60550 | 1067 ft | 203 kts | 119° |
| 2026-04-24 00:03 | -27.64324 | -48.59336 | 1375 ft | 162 kts | 120° |
| 2026-04-24 00:03 | -27.64867 | -48.58324 | 1262 ft | 149 kts | 119° |
| 2026-04-24 00:04 | -27.65391 | -48.57272 | 762 ft | 155 kts | 119° |
| 2026-04-24 00:04 | -27.65952 | -48.56236 | 328 ft | 152 kts | 123° |
| 2026-04-24 00:04 | -27.66515 | -48.55234 | 110 ft | 144 kts | 121° |
| 2026-04-24 00:04 | -27.66998 | -48.54326 | 31 ft | 126 kts | 120° |
| 2026-04-24 00:05 | -27.67401 | -48.53566 | 26 ft | 80 kts | 121° |
| 2026-04-24 00:05 | -27.67584 | -48.53232 | 27 ft | 30 kts | 121° |
| 2026-04-24 00:05 | -27.67665 | -48.53108 | 27 ft | 6 kts | 144° |
| 2026-04-24 00:05 | -27.67733 | -48.53097 | 27 ft | 14 kts | 198° |
| 2026-04-24 00:06 | -27.67786 | -48.53145 | 26 ft | 10 kts | 221° |
| 2026-04-24 00:06 | -27.67804 | -48.53208 | 26 ft | 9 kts | 308° |
| 2026-04-24 00:06 | -27.67764 | -48.53289 | 26 ft | 15 kts | 298° |
| 2026-04-24 00:06 | -27.67708 | -48.53400 | 26 ft | 17 kts | 310° |
| 2026-04-24 00:07 | -27.67627 | -48.53504 | 26 ft | 18 kts | 297° |
| 2026-04-24 00:07 | -27.67563 | -48.53641 | 26 ft | 21 kts | 299° |
| 2026-04-24 00:07 | -27.67484 | -48.53789 | 26 ft | 23 kts | 303° |
| 2026-04-24 00:07 | -27.67395 | -48.53949 | 26 ft | 25 kts | 300° |
| 2026-04-24 00:08 | -27.67317 | -48.54098 | 26 ft | 9 kts | 302° |
| 2026-04-24 00:08 | -27.67276 | -48.54169 | 26 ft | 12 kts | 302° |
| 2026-04-24 00:08 | -27.67225 | -48.54262 | 26 ft | 15 kts | 301° |
| 2026-04-24 00:08 | -27.67257 | -48.54357 | 26 ft | 15 kts | 212° |
| 2026-04-24 00:09 | -27.67312 | -48.54412 | 26 ft | 9 kts | 216° |
| 2026-04-24 00:09 | -27.67346 | -48.54434 | 26 ft | 5 kts | 209° |
| 2026-04-24 00:09 | -27.67348 | -48.54435 | 26 ft | 0 kts | 209° |